Time;durP1;ratioP1;P1;durP2;ratioP2;P2;SDS_P1;SDS_P2;PMS_P1;PMS_P2;Temp;Humidity;BMP_temperature;BMP_pressure;BME280_temperature;BME280_humidity;BME280_pressure;Samples;Min_cycle;Max_cycle;Signal;HPM_P1;HPM_P2
2023/01/31 00:00:29;;;;;;;23.70;4.40;;;;;;;3.24;81.12;99657.36;130232;1256;114782;-61
2023/01/31 00:03:54;;;;;;;38.60;4.90;;;;;;;3.23;80.93;99656.54;130052;1257;114767;-60
2023/01/31 00:06:56;;;;;;;24.00;4.90;;;;;;;3.20;80.80;99665.96;130175;1275;128882;-60
2023/01/31 00:09:58;;;;;;;24.20;4.20;;;;;;;3.17;80.72;99670.28;130165;1267;115327;-60
2023/01/31 00:13:00;;;;;;;16.90;4.90;;;;;;;3.15;80.69;99673.52;130242;1257;114779;-60
2023/01/31 00:16:03;;;;;;;31.00;4.20;;;;;;;3.14;80.61;99674.95;129807;1259;114839;-60
2023/01/31 00:19:06;;;;;;;19.90;4.00;;;;;;;3.15;80.57;99668.94;130259;1253;114709;-60
2023/01/31 00:22:08;;;;;;;23.60;4.20;;;;;;;3.15;80.56;99675.45;130157;1263;115386;-62
2023/01/31 00:25:10;;;;;;;24.70;4.00;;;;;;;3.15;80.60;99681.99;130169;1272;114747;-60
2023/01/31 00:28:13;;;;;;;28.40;4.50;;;;;;;3.15;80.53;99694.89;130228;1256;128765;-63
2023/01/31 00:31:16;;;;;;;18.90;4.40;;;;;;;3.15;80.59;99696.27;130296;1251;114851;-61
2023/01/31 00:34:18;;;;;;;25.90;4.00;;;;;;;3.16;80.59;99697.11;130309;1254;114733;-61
2023/01/31 00:37:21;;;;;;;19.10;3.80;;;;;;;3.16;80.42;99697.30;130313;1251;115127;-62
2023/01/31 00:40:23;;;;;;;12.70;4.00;;;;;;;3.16;80.56;99706.12;130110;1274;114689;-60
2023/01/31 00:43:26;;;;;;;28.90;4.40;;;;;;;3.17;80.48;99710.52;130320;1266;114781;-65
2023/01/31 00:46:28;;;;;;;24.20;4.70;;;;;;;3.16;80.21;99708.95;130350;1273;115295;-61
2023/01/31 00:49:31;;;;;;;16.40;3.70;;;;;;;3.16;80.01;99715.14;130349;1274;114763;-61
2023/01/31 00:52:33;;;;;;;16.70;3.30;;;;;;;3.14;80.09;99719.27;130232;1271;115146;-63
2023/01/31 00:55:35;;;;;;;20.00;3.80;;;;;;;3.11;80.03;99720.77;130224;1254;114699;-61
2023/01/31 00:58:41;;;;;;;19.30;3.10;;;;;;;3.09;79.96;99728.03;130289;1254;114775;-61
2023/01/31 01:01:44;;;;;;;23.90;4.50;;;;;;;3.09;80.07;99726.27;130105;1256;114731;-63
2023/01/31 01:04:46;;;;;;;17.10;3.10;;;;;;;3.08;80.15;99737.41;130113;1274;115370;-61
2023/01/31 01:07:49;;;;;;;24.90;3.90;;;;;;;3.08;80.23;99735.99;130227;1275;114755;-61
2023/01/31 01:10:51;;;;;;;16.10;4.00;;;;;;;3.09;80.19;99735.45;130192;1275;115087;-61
2023/01/31 01:13:55;;;;;;;23.50;3.90;;;;;;;3.09;80.17;99749.55;130311;1253;114728;-63
2023/01/31 01:16:57;;;;;;;23.20;5.10;;;;;;;3.11;80.14;99759.38;130066;1260;115160;-62
2023/01/31 01:20:02;;;;;;;22.50;3.90;;;;;;;3.12;80.10;99750.19;130192;1255;114734;-62
2023/01/31 01:23:04;;;;;;;19.20;4.30;;;;;;;3.12;79.90;99751.60;130124;1275;115225;-62
2023/01/31 01:26:15;;;;;;;20.50;3.40;;;;;;;3.11;79.77;99750.03;130053;1275;114682;-60
2023/01/31 01:29:17;;;;;;;20.80;3.90;;;;;;;3.09;79.53;99750.98;130260;1256;115169;-61
2023/01/31 01:32:19;;;;;;;20.50;3.30;;;;;;;3.07;79.36;99748.02;130211;1254;114712;-61
2023/01/31 01:35:21;;;;;;;14.70;2.60;;;;;;;3.04;79.03;99748.80;130234;1257;114766;-63
2023/01/31 01:38:24;;;;;;;23.00;4.00;;;;;;;3.02;78.92;99756.79;130373;1275;114708;-61
2023/01/31 01:41:27;;;;;;;22.20;3.20;;;;;;;3.01;78.71;99765.11;130172;1275;114702;-61
2023/01/31 01:44:51;;;;;;;18.70;3.20;;;;;;;3.00;78.65;99774.33;130116;1273;114775;-62
2023/01/31 01:47:57;;;;;;;18.40;3.40;;;;;;;2.98;78.73;99775.98;130247;1272;115167;-62
2023/01/31 01:51:02;;;;;;;25.10;3.50;;;;;;;2.98;78.60;99781.09;130130;1254;115147;-62
2023/01/31 01:54:05;;;;;;;;;;;;;;;2.96;78.45;99776.56;130076;1257;114785;-61
2023/01/31 01:57:10;;;;;;;17.60;3.30;;;;;;;2.92;78.27;99783.17;129930;1260;114734;-61
2023/01/31 02:00:21;;;;;;;24.50;3.80;;;;;;;2.89;78.25;99790.30;130273;1273;129023;-61
2023/01/31 02:03:24;;;;;;;20.60;3.50;;;;;;;2.87;78.12;99796.35;130130;1251;116617;-62
2023/01/31 02:06:26;;;;;;;12.20;2.50;;;;;;;2.88;78.02;99798.27;130305;1252;114764;-64
2023/01/31 02:09:39;;;;;;;22.90;3.20;;;;;;;2.88;78.00;99798.98;130290;1254;114788;-61
2023/01/31 02:12:41;;;;;;;12.80;2.80;;;;;;;2.88;77.86;99800.59;130295;1273;114814;-60
2023/01/31 02:15:45;;;;;;;17.10;2.60;;;;;;;2.87;77.89;99813.81;130243;1273;114719;-59
2023/01/31 02:18:48;;;;;;;17.80;3.50;;;;;;;2.85;77.74;99805.04;130343;1270;114756;-60
2023/01/31 02:22:05;;;;;;;17.40;2.80;;;;;;;2.82;77.70;99814.98;130239;1252;114670;-65
2023/01/31 02:25:23;;;;;;;9.60;2.60;;;;;;;2.80;77.63;99827.92;130407;1273;114753;-60
2023/01/31 02:28:31;;;;;;;16.50;3.70;;;;;;;2.76;77.50;99832.09;130004;1261;114885;-60
2023/01/31 02:31:53;;;;;;;13.30;2.60;;;;;;;2.70;77.39;99836.48;130400;1251;129004;-60
2023/01/31 02:35:27;;;;;;;15.00;3.70;;;;;;;2.63;77.31;99847.39;130369;1255;114639;-63
2023/01/31 02:38:57;;;;;;;15.40;3.40;;;;;;;2.58;77.65;99849.80;130311;1251;114763;-67
2023/01/31 02:42:18;;;;;;;14.20;3.20;;;;;;;2.55;78.08;99862.22;130371;1273;114709;-61
2023/01/31 02:45:51;;;;;;;19.10;2.80;;;;;;;2.52;78.08;99864.93;129992;1254;114872;-62
2023/01/31 02:49:01;;;;;;;13.60;2.30;;;;;;;2.49;78.27;99872.75;130312;1273;128557;-66
2023/01/31 02:52:24;;;;;;;15.00;3.20;;;;;;;2.48;78.33;99876.13;129979;1273;115201;-62
2023/01/31 02:59:17;;;;;;;12.30;2.60;;;;;;;2.47;78.57;99886.55;130038;1257;114827;-60
2023/01/31 03:02:20;;;;;;;13.30;2.90;;;;;;;2.45;78.59;99902.29;130190;1251;115201;-63
2023/01/31 03:05:22;;;;;;;12.80;2.60;;;;;;;2.45;78.60;99902.45;130279;1251;114793;-62
2023/01/31 03:08:25;;;;;;;15.70;3.60;;;;;;;2.44;78.56;99901.77;130283;1251;114707;-61
2023/01/31 03:11:52;;;;;;;18.40;4.60;;;;;;;2.44;78.59;99907.23;130262;1254;114779;-63
2023/01/31 03:15:16;;;;;;;17.80;3.10;;;;;;;2.46;78.47;99921.13;130457;1271;115218;-60
2023/01/31 03:18:25;;;;;;;19.80;3.70;;;;;;;2.48;78.58;99930.08;130295;1273;114619;-60
2023/01/31 03:21:41;;;;;;;13.10;3.40;;;;;;;2.50;78.70;99931.60;130211;1274;114792;-60
2023/01/31 03:24:43;;;;;;;;;;;;;;;2.53;78.73;99941.76;130334;1255;129127;-61
2023/01/31 03:28:09;;;;;;;23.60;3.70;;;;;;;2.54;78.45;99945.10;130268;1257;114698;-61
2023/01/31 03:31:29;;;;;;;18.60;3.60;;;;;;;2.54;78.36;99949.85;129962;1271;115349;-65
2023/01/31 03:34:32;;;;;;;15.90;3.50;;;;;;;2.53;78.39;99957.10;129782;1256;114882;-62
2023/01/31 03:37:55;;;;;;;14.30;2.90;;;;;;;2.49;78.08;99976.02;130046;1254;115195;-59
2023/01/31 03:41:07;;;;;;;14.90;2.50;;;;;;;2.42;78.07;99981.64;130179;1275;128569;-62
2023/01/31 03:44:24;;;;;;;19.10;2.80;;;;;;;2.31;78.14;99977.13;130205;1275;115155;-60
2023/01/31 03:47:28;;;;;;;21.80;3.20;;;;;;;2.20;78.16;99972.42;130211;1256;115168;-60
2023/01/31 03:50:37;;;;;;;14.60;2.70;;;;;;;2.10;78.37;99969.80;130092;1258;114804;-61
2023/01/31 03:54:00;;;;;;;22.00;4.30;;;;;;;2.03;78.61;99968.89;130045;1251;114900;-61
2023/01/31 03:57:11;;;;;;;17.80;3.60;;;;;;;1.98;78.70;99970.39;130291;1273;129996;-63
2023/01/31 04:00:15;;;;;;;14.70;3.10;;;;;;;1.96;78.80;99978.36;129981;1273;115156;-63
2023/01/31 04:03:22;;;;;;;15.00;3.10;;;;;;;1.94;78.69;99979.45;130230;1251;114822;-61
2023/01/31 04:06:26;;;;;;;20.40;4.70;;;;;;;1.93;78.72;99981.40;130085;1254;114793;-64
2023/01/31 04:09:28;;;;;;;21.70;3.30;;;;;;;1.93;78.94;99991.27;130182;1273;114823;-64
2023/01/31 04:12:36;;;;;;;19.10;3.80;;;;;;;1.94;78.90;99995.12;130145;1257;114808;-63
2023/01/31 04:15:38;;;;;;;18.70;3.50;;;;;;;1.95;78.84;100007.25;130131;1252;115188;-60
2023/01/31 04:18:40;;;;;;;18.00;3.30;;;;;;;1.95;78.89;100008.66;130293;1254;114788;-62
2023/01/31 04:21:43;;;;;;;15.70;3.40;;;;;;;1.95;78.46;100014.13;130253;1254;114817;-60
2023/01/31 04:24:45;;;;;;;18.50;2.90;;;;;;;1.94;78.52;100013.62;130334;1251;115106;-65
2023/01/31 04:27:47;;;;;;;18.20;3.40;;;;;;;1.95;78.46;100013.42;130295;1266;115316;-67
2023/01/31 04:30:54;;;;;;;23.20;3.80;;;;;;;1.96;78.12;100013.77;130240;1252;114701;-60
2023/01/31 04:33:57;;;;;;;21.20;3.40;;;;;;;1.96;78.23;100015.15;130375;1254;115387;-60
2023/01/31 04:36:59;;;;;;;21.20;3.70;;;;;;;1.97;78.08;100018.83;130285;1250;114699;-62
2023/01/31 04:40:02;;;;;;;16.30;3.40;;;;;;;1.99;78.01;100026.20;130304;1270;114783;-62
2023/01/31 04:43:04;;;;;;;16.60;3.60;;;;;;;2.00;77.68;100031.64;130341;1273;115353;-61
2023/01/31 04:46:07;;;;;;;18.80;3.10;;;;;;;2.01;77.86;100034.61;130209;1254;114690;-63
2023/01/31 04:49:09;;;;;;;16.20;2.60;;;;;;;2.02;77.68;100039.89;130284;1254;127973;-64
2023/01/31 04:52:12;;;;;;;26.80;4.40;;;;;;;2.04;77.61;100045.13;130191;1254;114747;-60
2023/01/31 04:55:15;;;;;;;18.10;3.40;;;;;;;2.04;77.38;100046.89;130260;1256;114794;-62
2023/01/31 04:58:17;;;;;;;15.50;3.20;;;;;;;2.05;77.32;100046.16;130182;1258;114935;-59
2023/01/31 05:01:19;;;;;;;8.50;2.60;;;;;;;2.07;77.43;100046.66;130271;1254;114736;-67
2023/01/31 05:04:22;;;;;;;16.90;2.90;;;;;;;2.08;77.29;100044.34;130046;1260;114853;-63
2023/01/31 05:07:25;;;;;;;19.30;2.60;;;;;;;2.10;77.11;100048.02;130180;1255;114759;-60
2023/01/31 05:10:27;;;;;;;19.50;2.90;;;;;;;2.11;76.95;100049.57;130150;1257;114719;-63
2023/01/31 05:13:31;;;;;;;21.80;3.50;;;;;;;2.11;77.19;100049.73;130350;1252;114853;-68
2023/01/31 05:16:33;;;;;;;11.10;3.50;;;;;;;2.12;76.88;100049.38;130063;1256;114767;-62
2023/01/31 05:19:35;;;;;;;16.50;3.40;;;;;;;2.11;76.90;100058.02;130191;1256;114752;-64
2023/01/31 05:22:37;;;;;;;22.90;3.00;;;;;;;2.11;76.92;100057.50;130301;1256;114718;-67
2023/01/31 05:25:40;;;;;;;13.40;3.20;;;;;;;2.12;76.71;100055.55;130304;1255;114706;-62
2023/01/31 05:28:42;;;;;;;19.90;2.80;;;;;;;2.12;76.67;100060.84;130153;1273;129002;-60
2023/01/31 05:31:44;;;;;;;13.20;2.90;;;;;;;2.12;76.52;100071.94;130126;1257;114747;-62
2023/01/31 05:34:47;;;;;;;18.40;3.40;;;;;;;2.12;76.50;100073.52;130196;1251;114775;-61
2023/01/31 05:37:49;;;;;;;16.70;3.60;;;;;;;2.12;76.45;100079.33;130188;1253;114757;-60
2023/01/31 05:40:51;;;;;;;11.10;3.20;;;;;;;2.12;76.44;100086.20;130343;1251;114791;-59
2023/01/31 05:43:54;;;;;;;10.60;2.70;;;;;;;2.13;76.53;100094.29;130228;1254;114708;-69
2023/01/31 05:46:56;;;;;;;15.60;3.50;;;;;;;2.14;76.28;100101.68;130271;1251;115199;-61
2023/01/31 05:49:59;;;;;;;17.80;4.50;;;;;;;2.15;76.48;100105.36;130232;1273;114772;-61
2023/01/31 05:53:02;;;;;;;21.40;4.10;;;;;;;2.15;76.23;100107.83;130199;1257;115269;-60
2023/01/31 05:56:05;;;;;;;12.30;2.80;;;;;;;2.16;76.32;100109.56;130249;1254;114663;-61
2023/01/31 05:59:07;;;;;;;15.90;3.30;;;;;;;2.17;76.41;100116.05;130221;1255;114702;-69
2023/01/31 06:02:12;;;;;;;14.90;3.40;;;;;;;2.18;76.28;100120.62;130246;1266;115073;-60
2023/01/31 06:05:16;;;;;;;19.00;3.70;;;;;;;2.19;76.22;100125.89;130247;1257;128916;-64
2023/01/31 06:08:18;;;;;;;13.80;3.50;;;;;;;2.20;76.25;100125.16;130093;1251;114716;-61
2023/01/31 06:11:20;;;;;;;17.80;3.80;;;;;;;2.21;76.20;100126.75;130250;1255;114705;-65
2023/01/31 06:14:23;;;;;;;18.80;4.50;;;;;;;2.21;76.06;100136.60;130244;1257;114703;-61
2023/01/31 06:17:25;;;;;;;19.50;3.50;;;;;;;2.21;75.70;100137.84;130311;1257;114766;-64
2023/01/31 06:20:27;;;;;;;21.00;3.90;;;;;;;2.22;75.73;100147.16;130493;1255;115217;-63
2023/01/31 06:23:30;;;;;;;14.20;3.60;;;;;;;2.22;75.39;100152.44;130268;1254;114753;-60
2023/01/31 06:26:33;;;;;;;21.00;4.30;;;;;;;2.23;75.19;100155.42;130566;1251;114751;-62
2023/01/31 06:29:35;;;;;;;16.80;4.10;;;;;;;2.24;75.11;100163.33;130061;1274;115141;-65
2023/01/31 06:32:37;;;;;;;24.60;4.70;;;;;;;2.25;75.06;100159.95;130226;1273;114807;-65
2023/01/31 06:35:40;;;;;;;20.50;6.50;;;;;;;2.27;74.73;100166.29;130380;1251;114752;-65
2023/01/31 06:38:42;;;;;;;12.10;3.60;;;;;;;2.28;74.39;100170.67;130151;1257;114919;-65
2023/01/31 06:41:45;;;;;;;12.50;2.80;;;;;;;2.30;74.43;100166.42;130207;1257;114724;-64
2023/01/31 06:44:47;;;;;;;13.50;3.10;;;;;;;2.32;74.29;100171.84;130297;1273;114691;-61
2023/01/31 06:47:49;;;;;;;14.20;3.60;;;;;;;2.34;74.30;100173.92;130301;1257;114677;-67
2023/01/31 06:50:51;;;;;;;18.40;3.40;;;;;;;2.36;74.35;100179.33;130264;1251;115151;-61
2023/01/31 06:53:55;;;;;;;9.00;2.90;;;;;;;2.39;74.63;100185.97;130254;1254;114722;-61
2023/01/31 06:56:58;;;;;;;11.90;2.70;;;;;;;2.41;74.32;100194.58;130246;1252;114750;-64
2023/01/31 07:00:00;;;;;;;11.80;3.00;;;;;;;2.43;74.66;100190.85;130222;1273;114738;-63
2023/01/31 07:03:03;;;;;;;11.00;3.20;;;;;;;2.46;74.62;100190.61;130215;1256;114692;-61
2023/01/31 07:06:06;;;;;;;14.70;2.50;;;;;;;2.50;74.40;100193.72;130220;1275;115074;-62
2023/01/31 07:09:10;;;;;;;14.40;2.80;;;;;;;2.52;74.44;100200.56;130313;1258;115256;-61
2023/01/31 07:12:12;;;;;;;18.10;4.30;;;;;;;2.54;74.47;100198.59;130017;1259;114795;-63
2023/01/31 07:15:15;;;;;;;27.10;4.00;;;;;;;2.55;74.52;100198.02;130115;1275;114737;-64
2023/01/31 07:18:17;;;;;;;18.50;5.50;;;;;;;2.58;74.62;100197.44;130061;1256;115185;-61
2023/01/31 07:21:21;;;;;;;18.20;6.30;;;;;;;2.61;74.49;100201.81;130457;1251;114813;-64
2023/01/31 07:24:24;;;;;;;15.50;3.60;;;;;;;2.63;74.63;100204.95;130281;1269;128783;-62
2023/01/31 07:27:26;;;;;;;19.50;3.40;;;;;;;2.65;74.52;100216.20;130300;1257;114759;-61
2023/01/31 07:30:29;;;;;;;12.80;3.20;;;;;;;2.68;74.42;100222.66;130148;1272;115234;-60
2023/01/31 07:33:33;;;;;;;15.60;3.40;;;;;;;2.70;74.65;100226.14;130292;1257;114639;-61
2023/01/31 07:36:35;;;;;;;17.10;4.20;;;;;;;2.73;74.73;100234.92;130241;1254;114692;-63
2023/01/31 07:39:38;;;;;;;16.10;4.50;;;;;;;2.77;74.38;100243.14;130377;1257;115311;-60
2023/01/31 07:42:40;;;;;;;18.50;3.60;;;;;;;2.80;74.45;100249.60;130303;1251;114696;-60
2023/01/31 07:45:43;;;;;;;18.40;3.70;;;;;;;2.83;74.36;100252.54;130102;1272;115319;-61
2023/01/31 07:48:45;;;;;;;23.40;5.30;;;;;;;2.86;74.53;100256.54;130241;1255;114798;-61
2023/01/31 07:51:47;;;;;;;16.90;3.90;;;;;;;2.89;74.49;100263.37;130176;1273;114776;-66
2023/01/31 07:54:50;;;;;;;20.80;4.00;;;;;;;2.93;74.60;100264.70;130323;1251;114784;-61
2023/01/31 07:57:52;;;;;;;20.50;3.70;;;;;;;2.96;74.60;100264.65;130330;1257;114774;-62
2023/01/31 08:04:16;;;;;;;18.20;4.60;;;;;;;3.06;74.47;100265.70;130254;1274;115125;-61
2023/01/31 08:07:19;;;;;;;14.30;4.00;;;;;;;3.10;74.26;100268.63;130258;1256;115170;-60
2023/01/31 08:10:21;;;;;;;12.60;3.40;;;;;;;3.14;74.51;100271.20;130232;1257;115312;-63
2023/01/31 08:13:25;;;;;;;12.90;3.50;;;;;;;3.17;74.19;100266.17;130332;1274;114711;-63
2023/01/31 08:16:30;;;;;;;10.60;2.20;;;;;;;3.18;73.85;100267.92;130230;1257;115182;-63
2023/01/31 08:19:34;;;;;;;20.30;3.60;;;;;;;3.23;73.75;100278.96;130074;1273;128187;-61
2023/01/31 08:22:36;;;;;;;15.50;3.10;;;;;;;3.28;73.59;100274.98;130264;1256;114746;-62
2023/01/31 08:25:39;;;;;;;14.00;3.40;;;;;;;3.32;73.40;100274.18;130365;1254;114775;-62
2023/01/31 08:28:43;;;;;;;20.70;4.00;;;;;;;3.40;73.10;100273.50;130359;1251;115351;-62
2023/01/31 08:31:45;;;;;;;15.50;3.70;;;;;;;3.48;73.34;100274.93;130286;1255;114784;-62
2023/01/31 08:34:48;;;;;;;16.80;5.20;;;;;;;3.58;73.24;100278.43;130138;1254;114708;-61
2023/01/31 08:37:51;;;;;;;17.00;3.40;;;;;;;3.64;73.04;100284.98;130370;1257;114767;-59
2023/01/31 08:40:58;;;;;;;11.80;3.40;;;;;;;3.69;72.99;100287.92;129961;1273;115239;-60
2023/01/31 08:44:02;;;;;;;12.30;3.10;;;;;;;3.74;73.25;100279.33;130065;1259;114856;-62
2023/01/31 08:47:05;;;;;;;14.50;2.70;;;;;;;3.81;73.09;100279.52;130252;1251;114695;-61
2023/01/31 08:50:09;;;;;;;18.70;3.50;;;;;;;3.88;73.23;100272.66;130119;1257;115305;-60
2023/01/31 08:53:11;;;;;;;12.00;3.20;;;;;;;3.95;73.28;100279.21;129755;1275;127824;-60
2023/01/31 08:56:14;;;;;;;17.50;3.60;;;;;;;4.01;73.17;100275.89;130257;1256;115319;-61
2023/01/31 08:59:16;;;;;;;11.50;3.90;;;;;;;4.06;72.96;100282.50;130357;1256;114722;-62
2023/01/31 09:02:19;;;;;;;16.40;4.90;;;;;;;4.11;73.17;100290.51;130213;1255;115221;-60
2023/01/31 09:05:24;;;;;;;12.90;3.60;;;;;;;4.19;73.14;100293.69;130009;1255;114833;-61
2023/01/31 09:08:26;;;;;;;15.60;4.00;;;;;;;4.25;73.00;100298.85;130163;1260;116128;-60
2023/01/31 09:11:29;;;;;;;15.70;3.70;;;;;;;4.32;72.96;100296.75;130300;1254;114719;-62
2023/01/31 09:14:32;;;;;;;15.20;3.60;;;;;;;4.39;72.94;100302.42;130243;1251;114658;-65
2023/01/31 09:17:34;;;;;;;19.20;3.50;;;;;;;4.44;72.79;100306.52;130257;1251;115071;-61
2023/01/31 09:20:37;;;;;;;26.20;6.20;;;;;;;4.49;72.55;100307.83;130263;1257;114752;-61
2023/01/31 09:23:40;;;;;;;14.40;4.30;;;;;;;4.51;72.38;100312.56;130080;1252;114747;-61
2023/01/31 09:26:42;;;;;;;16.20;5.20;;;;;;;4.53;72.31;100317.63;130365;1257;115172;-64
2023/01/31 09:29:45;;;;;;;18.00;3.70;;;;;;;4.56;72.18;100318.63;130331;1257;115147;-64
2023/01/31 09:32:48;;;;;;;15.10;3.90;;;;;;;4.58;72.14;100316.47;130004;1270;270688;-69
2023/01/31 09:36:02;;;;;;;17.60;3.70;;;;;;;4.62;72.20;100324.52;130251;1252;114703;-63
2023/01/31 09:39:04;;;;;;;19.40;4.40;;;;;;;4.65;72.16;100322.30;130145;1257;114766;-67
2023/01/31 09:42:17;;;;;;;9.80;2.90;;;;;;;4.71;72.39;100320.75;130227;1270;114884;-61
2023/01/31 09:45:26;;;;;;;16.80;3.90;;;;;;;4.78;72.23;100322.85;130326;1257;127790;-61
2023/01/31 09:48:34;;;;;;;18.10;3.60;;;;;;;4.89;72.14;100321.00;130095;1273;115201;-68
2023/01/31 09:51:38;;;;;;;11.50;3.10;;;;;;;4.99;72.06;100320.72;130233;1274;114689;-61
2023/01/31 09:54:40;;;;;;;17.50;4.00;;;;;;;5.04;71.96;100317.92;130112;1254;114959;-61
2023/01/31 09:57:58;;;;;;;19.70;4.20;;;;;;;5.08;71.76;100317.31;130114;1251;114862;-62
2023/01/31 10:01:17;;;;;;;19.30;3.90;;;;;;;5.13;71.79;100314.35;130219;1274;128540;-63
2023/01/31 10:04:41;;;;;;;13.60;3.60;;;;;;;5.20;71.60;100311.15;130164;1267;115166;-64
2023/01/31 10:07:58;;;;;;;18.30;3.70;;;;;;;5.29;71.60;100302.94;130042;1254;114881;-61
2023/01/31 10:11:02;;;;;;;13.10;2.60;;;;;;;5.41;71.77;100299.58;130145;1251;114863;-65
2023/01/31 10:14:10;;;;;;;15.20;3.90;;;;;;;5.51;71.67;100296.49;130185;1257;114826;-61
2023/01/31 10:17:35;;;;;;;20.50;4.90;;;;;;;5.56;71.74;100301.46;130263;1273;128960;-64
2023/01/31 10:20:43;;;;;;;13.70;3.00;;;;;;;5.57;71.74;100291.52;129827;1274;115096;-61
2023/01/31 10:23:56;;;;;;;16.70;3.80;;;;;;;5.54;71.59;100287.20;129900;1267;114850;-61
2023/01/31 10:27:14;;;;;;;11.20;4.80;;;;;;;5.51;71.41;100281.62;129828;1260;114801;-60
2023/01/31 10:30:20;;;;;;;17.50;4.00;;;;;;;5.47;71.87;100285.62;130359;1254;114724;-61
2023/01/31 10:33:29;;;;;;;17.40;3.90;;;;;;;5.50;72.10;100288.02;130057;1257;127746;-60
2023/01/31 10:36:41;;;;;;;20.80;4.60;;;;;;;5.51;71.91;100290.28;130179;1265;115281;-64
2023/01/31 10:40:12;;;;;;;16.90;4.70;;;;;;;5.48;71.78;100289.29;130266;1273;115093;-68
2023/01/31 10:43:56;;;;;;;19.90;5.40;;;;;;;5.43;72.11;100292.11;129977;1254;114786;-67
2023/01/31 10:46:59;;;;;;;22.20;6.60;;;;;;;5.41;72.22;100289.83;129360;1263;114722;-64
2023/01/31 10:50:17;;;;;;;25.90;6.80;;;;;;;5.51;72.55;100286.38;129411;1265;115125;-61
2023/01/31 10:53:28;;;;;;;12.90;3.70;;;;;;;5.69;72.99;100289.05;129510;1276;116600;-60
2023/01/31 10:56:35;;;;;;;11.70;3.70;;;;;;;5.85;72.72;100287.15;129471;1265;114917;-59
2023/01/31 10:59:41;;;;;;;17.30;4.30;;;;;;;5.96;72.43;100279.40;129443;1267;114814;-60
2023/01/31 11:02:44;;;;;;;16.10;3.70;;;;;;;6.01;72.17;100279.25;129404;1265;114793;-65
2023/01/31 11:05:55;;;;;;;12.80;3.70;;;;;;;6.02;71.69;100276.41;129573;1283;114959;-66
2023/01/31 11:09:02;;;;;;;20.80;4.10;;;;;;;6.04;71.89;100267.81;129548;1263;115459;-66
2023/01/31 11:12:07;;;;;;;16.00;3.90;;;;;;;6.11;72.12;100259.30;129469;1263;114853;-64
2023/01/31 11:15:19;;;;;;;16.80;3.70;;;;;;;6.21;72.31;100252.59;129475;1283;114796;-69
2023/01/31 11:18:45;;;;;;;14.00;3.70;;;;;;;6.28;71.96;100251.98;129369;1267;114728;-68
2023/01/31 11:21:49;;;;;;;17.60;5.50;;;;;;;6.33;71.92;100252.19;129823;1257;127738;-63
2023/01/31 11:24:53;;;;;;;24.10;5.30;;;;;;;6.30;71.47;100249.09;129971;1275;114830;-67
2023/01/31 11:28:14;;;;;;;15.90;4.60;;;;;;;6.23;71.32;100242.20;130322;1256;114788;-66
2023/01/31 11:31:23;;;;;;;14.20;3.30;;;;;;;6.18;71.24;100229.96;130275;1254;114781;-61
2023/01/31 11:34:30;;;;;;;16.70;3.70;;;;;;;6.10;71.17;100228.64;130068;1260;116475;-68
2023/01/31 11:37:33;;;;;;;12.10;3.60;;;;;;;6.05;71.26;100216.91;130031;1259;127849;-63
2023/01/31 11:40:38;;;;;;;15.90;3.80;;;;;;;5.98;71.09;100216.39;130225;1257;114714;-62
2023/01/31 11:43:40;;;;;;;12.80;3.40;;;;;;;5.95;71.36;100219.17;130309;1257;114974;-61
2023/01/31 11:46:43;;;;;;;14.00;3.50;;;;;;;5.98;71.73;100217.29;130280;1256;114706;-65
2023/01/31 11:49:47;;;;;;;14.90;3.60;;;;;;;6.03;71.65;100213.96;130270;1257;114698;-61
2023/01/31 11:53:04;;;;;;;17.70;4.20;;;;;;;6.08;71.82;100214.31;130127;1257;114763;-62
2023/01/31 11:56:23;;;;;;;18.30;4.60;;;;;;;6.10;71.61;100205.57;129941;1259;116333;-67
2023/01/31 11:59:28;;;;;;;16.00;4.30;;;;;;;6.10;71.28;100194.75;130294;1254;114677;-66
2023/01/31 12:02:37;;;;;;;13.10;3.90;;;;;;;6.07;71.23;100193.80;130280;1274;114705;-63
2023/01/31 12:05:46;;;;;;;11.60;3.40;;;;;;;6.03;71.18;100188.77;129978;1274;116413;-66
2023/01/31 12:08:53;;;;;;;15.40;3.10;;;;;;;5.94;70.84;100189.02;130066;1257;128742;-64
2023/01/31 12:12:05;;;;;;;9.20;2.60;;;;;;;5.86;71.02;100185.40;130069;1259;115143;-63
2023/01/31 12:15:16;;;;;;;11.70;3.40;;;;;;;5.75;71.31;100184.48;130098;1256;114737;-66
2023/01/31 12:18:24;;;;;;;14.80;3.80;;;;;;;5.65;71.42;100183.39;130036;1260;114805;-61
2023/01/31 12:21:26;;;;;;;15.60;4.30;;;;;;;5.60;71.73;100177.01;130132;1257;114694;-60
2023/01/31 12:25:17;;;;;;;8.70;3.10;;;;;;;5.56;72.02;100176.05;130185;1256;114797;-66
2023/01/31 12:28:23;;;;;;;9.20;4.10;;;;;;;5.45;72.26;100178.33;129430;1263;115224;-61
2023/01/31 12:31:55;;;;;;;12.80;3.20;;;;;;;5.40;72.83;100174.04;129255;1265;114851;-63
2023/01/31 12:35:09;;;;;;;8.10;4.20;;;;;;;5.36;72.89;100163.90;129163;1279;115117;-60
2023/01/31 12:38:49;;;;;;;17.00;6.80;;;;;;;5.38;73.36;100159.07;129428;1263;114736;-64
2023/01/31 12:42:13;;;;;;;15.10;6.70;;;;;;;5.40;73.31;100155.29;129495;1282;128942;-64
2023/01/31 12:45:38;;;;;;;12.90;4.20;;;;;;;5.38;73.15;100148.08;129206;1267;115256;-65
2023/01/31 12:48:48;;;;;;;10.20;3.80;;;;;;;5.36;73.16;100143.54;129314;1263;114814;-61
2023/01/31 12:52:19;;;;;;;9.70;4.60;;;;;;;5.37;73.28;100146.71;129301;1261;114857;-60
2023/01/31 12:55:34;;;;;;;9.00;3.80;;;;;;;5.34;73.19;100138.45;128962;1268;114843;-60
2023/01/31 12:58:56;;;;;;;;;;;;;;;5.31;73.20;100138.55;129039;1287;128445;-63
2023/01/31 13:02:36;;;;;;;17.00;4.50;;;;;;;5.29;73.24;100126.77;129080;1273;115365;-67
2023/01/31 13:05:43;;;;;;;15.50;5.70;;;;;;;5.28;73.13;100125.17;129381;1262;114898;-61
2023/01/31 13:08:53;;;;;;;9.90;4.70;;;;;;;5.28;73.11;100121.84;129368;1277;114714;-63
2023/01/31 13:12:08;;;;;;;18.40;6.80;;;;;;;5.26;73.18;100121.34;129617;1263;114852;-61
2023/01/31 13:15:19;;;;;;;18.40;9.00;;;;;;;5.23;73.40;100120.54;129610;1280;128781;-62
2023/01/31 13:18:23;;;;;;;19.30;9.10;;;;;;;5.20;73.61;100122.62;129538;1257;115249;-62
2023/01/31 13:21:30;;;;;;;18.10;5.20;;;;;;;5.14;73.44;100114.64;129658;1263;114821;-61
2023/01/31 13:24:37;;;;;;;23.80;9.30;;;;;;;5.07;73.48;100115.00;129751;1276;115121;-60
2023/01/31 13:27:43;;;;;;;21.30;6.60;;;;;;;5.06;73.96;100105.85;129543;1264;114926;-65
2023/01/31 13:30:52;;;;;;;17.60;6.00;;;;;;;5.07;73.95;100098.20;129304;1280;128525;-63
2023/01/31 13:33:57;;;;;;;16.10;4.90;;;;;;;5.10;73.99;100093.88;129802;1253;115208;-61
2023/01/31 13:37:02;;;;;;;15.00;4.80;;;;;;;5.11;74.00;100095.25;129800;1262;114788;-62
2023/01/31 13:40:21;;;;;;;;;;;;;;;5.10;74.03;100090.85;129802;1257;114880;-61
2023/01/31 13:43:23;;;;;;;13.80;4.50;;;;;;;5.09;73.95;100084.69;130038;1259;114868;-65
2023/01/31 13:46:38;;;;;;;13.80;4.30;;;;;;;5.07;74.02;100083.33;130166;1264;114744;-60
2023/01/31 13:49:49;;;;;;;12.10;4.00;;;;;;;5.04;74.03;100082.72;129767;1275;114871;-61
2023/01/31 13:52:55;;;;;;;20.80;4.80;;;;;;;5.00;73.98;100077.16;130078;1257;115142;-60
2023/01/31 13:56:00;;;;;;;13.30;5.40;;;;;;;4.97;73.96;100082.36;129928;1259;114734;-60
2023/01/31 13:59:07;;;;;;;14.20;4.50;;;;;;;4.92;73.74;100077.05;130098;1267;115135;-61
2023/01/31 14:02:18;;;;;;;20.80;5.20;;;;;;;4.87;73.91;100075.98;130090;1273;128407;-61
2023/01/31 14:05:42;;;;;;;23.80;8.30;;;;;;;4.86;74.17;100075.63;130164;1266;115214;-60
2023/01/31 14:08:50;;;;;;;17.40;5.90;;;;;;;4.84;74.36;100075.16;130219;1257;114833;-61
2023/01/31 14:11:59;;;;;;;18.60;6.20;;;;;;;4.82;74.52;100067.61;130285;1253;114757;-62
2023/01/31 14:15:29;;;;;;;15.60;5.30;;;;;;;4.80;74.43;100065.54;130191;1266;115093;-63
2023/01/31 14:18:43;;;;;;;16.40;4.80;;;;;;;4.78;74.48;100058.17;129880;1258;130737;-59
2023/01/31 14:21:56;;;;;;;20.50;5.60;;;;;;;4.76;74.59;100053.83;130229;1265;115208;-65